Heat Index [SAI AWOS/ASOS Display]_________FAA Disclaimer: "Not for use in aviation at this time______________" Untitled Document
Auglaize County Neil Armstrong Airport (AXV)
200
13:45
17/12/15
10
N/A
N/A
29.96
N/A
912
24(F), -4(C)
20(F), -7(C)
14 F
80%
OVC040
10
N/A
N/A
N/A
13:45 zulu Wind 200 at 10 Knots, Altimeter 29.96
METAR KAXV 151345Z AUTO 20010KT 10SM OVC040 M04/M07 A2996 A02
METAR:
FAA Disclaimer--Advisory Use ONLY, not for flight info-- 3/04/2009: Welcome to the Neil Armstong AXV Graphical AWOS Display, if you find this information useful, please call the airport manager at 419-753-2810. New URL for AWOS smartphone display is http://www.saiawos2.com/AXV
INFO:
Wind Direction:
Wind Speed:
Wind Gust:
Wind Variable:
Altimeter:
Dens Alt:
Elev:
Temp:
Dwpt:
Wind Chill
Rel Humidity:
Ceiling:
Visibility:
Prsnt Wea:
PCPN:
Remarks:
How to read the WebPage